createdAt,value
2022-10-13T00:00:14.385Z,14.55
2022-10-13T00:02:41.144Z,14.57
2022-10-13T00:05:08.774Z,15.32
2022-10-13T00:07:35.629Z,14.75
2022-10-13T00:10:02.542Z,14.40
2022-10-13T00:12:29.343Z,15.40
2022-10-13T00:14:56.139Z,16.65
2022-10-13T00:17:22.981Z,15.77
2022-10-13T00:19:49.733Z,15.07
2022-10-13T00:22:16.924Z,15.55
2022-10-13T00:24:43.971Z,15.70
2022-10-13T00:27:10.878Z,14.30
2022-10-13T00:29:37.686Z,15.38
2022-10-13T00:32:04.622Z,16.02
2022-10-13T00:34:31.423Z,15.65
2022-10-13T00:36:58.418Z,16.27
2022-10-13T00:39:25.700Z,16.83
2022-10-13T00:41:54.539Z,17.75
2022-10-13T00:44:58.211Z,17.52
2022-10-13T00:49:54.630Z,14.75
2022-10-13T00:52:23.548Z,15.48
2022-10-13T00:54:51.074Z,17.02
2022-10-13T00:57:20.707Z,16.73
2022-10-13T00:59:48.341Z,15.55
2022-10-13T01:02:16.034Z,16.38
2022-10-13T01:04:46.560Z,15.77
2022-10-13T01:07:16.386Z,16.90
2022-10-13T01:09:43.464Z,16.92
2022-10-13T01:12:32.434Z,15.18
2022-10-13T01:15:37.383Z,16.63
2022-10-13T01:18:26.190Z,15.98
2022-10-13T01:21:39.528Z,17.38
2022-10-13T01:24:18.066Z,16.23
2022-10-13T01:27:06.538Z,16.58
2022-10-13T01:29:52.141Z,16.05
2022-10-13T01:32:19.126Z,17.08
2022-10-13T01:34:55.135Z,16.77
2022-10-13T01:37:47.193Z,16.90
2022-10-13T01:40:47.838Z,17.92
2022-10-13T01:43:21.745Z,17.95
2022-10-13T01:45:55.824Z,17.75
2022-10-13T01:48:24.178Z,16.30
2022-10-13T01:50:52.063Z,17.50
2022-10-13T01:53:20.400Z,16.83
2022-10-13T01:55:56.396Z,18.25
2022-10-13T01:58:25.708Z,18.20
2022-10-13T02:01:05.594Z,16.85
2022-10-13T02:04:06.406Z,16.38
2022-10-13T02:06:42.294Z,16.50
2022-10-13T02:09:54.688Z,17.25
2022-10-13T02:12:30.844Z,16.75
2022-10-13T02:14:59.529Z,17.52
2022-10-13T02:17:27.934Z,16.35
2022-10-13T02:19:55.323Z,16.60
2022-10-13T02:22:26.133Z,17.52
2022-10-13T02:24:53.198Z,16.52
2022-10-13T02:27:20.021Z,16.65
2022-10-13T02:29:56.347Z,17.25
2022-10-13T02:32:23.902Z,17.75
2022-10-13T02:34:51.328Z,18.35
2022-10-13T02:37:18.302Z,17.52
2022-10-13T02:39:45.147Z,18.17
2022-10-13T02:42:11.968Z,16.73
2022-10-13T02:44:40.144Z,16.90
2022-10-13T02:47:06.891Z,17.05
2022-10-13T02:49:33.649Z,18.77
2022-10-13T02:52:00.776Z,17.63
2022-10-13T02:54:27.524Z,17.75
2022-10-13T02:56:54.373Z,16.77
2022-10-13T02:59:21.141Z,17.55
2022-10-13T03:01:47.930Z,18.00
2022-10-13T03:04:14.673Z,16.58
2022-10-13T03:06:41.473Z,16.15
2022-10-13T03:09:08.293Z,15.70
2022-10-13T03:11:35.206Z,16.10
2022-10-13T03:14:02.117Z,17.23
2022-10-13T03:16:28.891Z,15.85
2022-10-13T03:18:55.705Z,15.73
2022-10-13T03:21:22.519Z,17.10
2022-10-13T03:23:49.482Z,16.83
2022-10-13T03:26:16.756Z,17.35
2022-10-13T03:28:43.567Z,16.42
2022-10-13T03:31:11.923Z,17.38
2022-10-13T03:33:40.080Z,17.88
2022-10-13T03:36:07.547Z,17.85
2022-10-13T03:38:35.497Z,17.67
2022-10-13T03:41:10.788Z,18.50
2022-10-13T03:43:38.123Z,17.60
2022-10-13T03:46:06.589Z,17.75
2022-10-13T03:48:35.464Z,16.83
2022-10-13T03:51:11.089Z,17.40
2022-10-13T03:53:38.106Z,17.38
2022-10-13T03:56:05.832Z,18.02
2022-10-13T03:58:32.709Z,17.52
2022-10-13T04:01:04.793Z,18.13
2022-10-13T04:03:32.289Z,19.17
2022-10-13T04:06:04.253Z,17.35
2022-10-13T04:08:31.770Z,17.80
2022-10-13T04:11:04.677Z,18.52
2022-10-13T04:13:31.996Z,18.67
2022-10-13T04:16:07.241Z,19.40
2022-10-13T04:18:34.378Z,18.13
2022-10-13T04:21:01.587Z,16.60
2022-10-13T04:23:28.454Z,17.98
2022-10-13T04:25:56.531Z,19.45
2022-10-13T04:28:23.376Z,18.10
2022-10-13T04:30:50.340Z,17.88
2022-10-13T04:33:17.365Z,17.95
2022-10-13T04:35:44.210Z,17.83
2022-10-13T04:38:11.053Z,18.88
2022-10-13T04:40:37.853Z,17.40
2022-10-13T04:43:04.631Z,17.02
2022-10-13T04:45:31.380Z,16.23
2022-10-13T04:47:58.401Z,18.67
2022-10-13T04:50:25.188Z,17.50
2022-10-13T04:52:52.002Z,17.55
2022-10-13T04:55:18.832Z,17.80
2022-10-13T04:57:45.644Z,16.90
2022-10-13T05:00:12.997Z,19.30
2022-10-13T05:02:39.770Z,17.88
2022-10-13T05:05:07.233Z,18.25
2022-10-13T05:07:34.006Z,18.00
2022-10-13T05:10:00.803Z,18.98
2022-10-13T05:12:27.573Z,18.05
2022-10-13T05:14:54.345Z,17.83
2022-10-13T05:17:21.137Z,17.83
2022-10-13T05:19:49.351Z,18.77
2022-10-13T05:22:16.086Z,16.63
2022-10-13T05:24:42.867Z,16.65
2022-10-13T05:27:12.399Z,16.85
2022-10-13T05:29:40.340Z,16.25
2022-10-13T05:32:08.325Z,17.30
2022-10-13T05:34:35.151Z,16.05
2022-10-13T05:37:02.116Z,15.40
2022-10-13T05:39:28.928Z,17.02
2022-10-13T05:41:55.699Z,15.18
2022-10-13T05:44:22.748Z,14.77
2022-10-13T05:46:49.840Z,14.93
2022-10-13T05:49:17.036Z,15.40
2022-10-13T05:51:50.744Z,15.25
2022-10-13T05:54:39.198Z,16.80
2022-10-13T05:57:22.526Z,13.98
2022-10-13T05:59:57.512Z,16.92
2022-10-13T06:02:34.708Z,16.05
2022-10-13T06:05:04.452Z,15.77
2022-10-13T06:07:31.921Z,17.23
2022-10-13T06:09:59.337Z,16.60
2022-10-13T06:12:26.131Z,15.60
2022-10-13T06:14:52.860Z,17.58
2022-10-13T06:17:19.691Z,15.15
2022-10-13T06:19:46.507Z,16.30
2022-10-13T06:22:13.360Z,15.85
2022-10-13T06:24:40.102Z,15.43
2022-10-13T06:27:06.896Z,15.95
2022-10-13T06:29:33.818Z,15.10
2022-10-13T06:32:00.654Z,14.90
2022-10-13T06:34:27.472Z,16.10
2022-10-13T06:36:54.245Z,16.05
2022-10-13T06:39:21.064Z,15.38
2022-10-13T06:41:48.317Z,17.20
2022-10-13T06:44:15.112Z,17.33
2022-10-13T06:46:42.051Z,17.40
2022-10-13T06:49:10.434Z,16.90
2022-10-13T06:51:37.428Z,17.65
2022-10-13T06:54:04.253Z,16.92
2022-10-13T06:56:31.822Z,17.33
2022-10-13T06:58:58.613Z,16.17
2022-10-13T07:01:25.363Z,16.17
2022-10-13T07:03:52.684Z,16.65
2022-10-13T07:06:19.792Z,16.17
2022-10-13T07:08:46.750Z,17.00
2022-10-13T07:11:16.101Z,15.70
2022-10-13T07:13:46.539Z,16.88
2022-10-13T07:16:15.077Z,16.45
2022-10-13T07:18:42.008Z,17.95
2022-10-13T07:21:09.535Z,16.50
2022-10-13T07:23:36.354Z,17.40
2022-10-13T07:26:07.780Z,17.52
2022-10-13T07:28:34.701Z,18.10
2022-10-13T07:31:07.929Z,17.25
2022-10-13T07:33:34.823Z,16.60
2022-10-13T07:36:01.566Z,18.33
2022-10-13T07:38:28.305Z,17.30
2022-10-13T07:40:55.076Z,17.83
2022-10-13T07:43:21.816Z,19.52
2022-10-13T07:45:48.604Z,17.60
2022-10-13T07:48:15.891Z,18.10
2022-10-13T07:50:42.694Z,18.75
2022-10-13T07:53:09.428Z,17.98
2022-10-13T07:55:37.227Z,19.88
2022-10-13T07:58:04.326Z,18.83
2022-10-13T08:00:31.169Z,18.58
2022-10-13T08:02:57.962Z,18.92
2022-10-13T08:05:24.711Z,17.10
2022-10-13T08:07:54.662Z,16.45
2022-10-13T08:10:24.273Z,15.80
2022-10-13T08:12:51.079Z,15.25
2022-10-13T08:15:17.859Z,15.95
2022-10-13T08:17:44.621Z,15.63
2022-10-13T08:20:11.629Z,14.85
2022-10-13T08:22:38.372Z,16.60
2022-10-13T08:25:07.220Z,14.50
2022-10-13T08:27:50.228Z,15.25
2022-10-13T08:30:17.829Z,15.25
2022-10-13T08:32:44.792Z,14.60
2022-10-13T08:35:11.805Z,17.10
2022-10-13T08:37:38.585Z,15.60
2022-10-13T08:40:05.841Z,14.48
2022-10-13T08:42:32.643Z,14.90
2022-10-13T08:48:00.075Z,14.82
2022-10-13T08:50:35.733Z,14.32
2022-10-13T08:53:10.114Z,14.32
2022-10-13T08:55:50.776Z,13.45
2022-10-13T08:58:35.611Z,12.68
2022-10-13T09:01:02.321Z,12.75
2022-10-13T09:03:30.366Z,12.38
2022-10-13T09:06:14.401Z,12.65
2022-10-13T09:08:46.993Z,11.95
2022-10-13T09:11:13.920Z,13.23
2022-10-13T09:13:41.053Z,12.75
2022-10-13T09:16:08.197Z,13.10
2022-10-13T09:18:35.361Z,14.52
2022-10-13T09:21:18.513Z,12.23
2022-10-13T09:23:45.419Z,12.93
2022-10-13T09:26:22.387Z,14.30
2022-10-13T09:28:50.005Z,13.68
2022-10-13T09:31:27.607Z,13.23
2022-10-13T09:34:00.903Z,14.50
2022-10-13T09:36:28.198Z,13.07
2022-10-13T09:39:27.736Z,13.48
2022-10-13T09:42:18.866Z,11.98
2022-10-13T09:44:46.644Z,12.02
2022-10-13T09:47:25.355Z,12.32
2022-10-13T09:50:14.372Z,11.73
2022-10-13T09:52:42.576Z,11.10
2022-10-13T09:55:35.149Z,11.18
2022-10-13T09:58:27.952Z,10.03
2022-10-13T10:00:55.656Z,11.65
2022-10-13T10:03:27.484Z,10.23
2022-10-13T10:06:03.050Z,10.27
2022-10-13T10:09:03.270Z,9.18
2022-10-13T10:11:42.393Z,8.82
2022-10-13T10:14:28.339Z,9.25
2022-10-13T10:17:13.882Z,8.10
2022-10-13T10:20:01.143Z,8.18
2022-10-13T10:23:01.494Z,7.57
2022-10-13T10:25:46.965Z,8.55
2022-10-13T10:28:32.356Z,8.13
2022-10-13T10:31:04.299Z,8.50
2022-10-13T10:33:59.190Z,7.93
2022-10-13T10:36:38.630Z,7.78
2022-10-13T10:39:18.357Z,8.77
2022-10-13T10:42:19.483Z,8.68
2022-10-13T10:44:49.149Z,8.82
2022-10-13T10:47:36.598Z,8.25
2022-10-13T10:50:06.614Z,7.90
2022-10-13T10:52:42.088Z,7.60
2022-10-13T10:55:23.629Z,6.82
2022-10-13T10:58:02.700Z,7.22
2022-10-13T11:00:29.514Z,7.47
2022-10-13T11:03:16.500Z,7.63
2022-10-13T11:06:04.436Z,7.32
2022-10-13T11:08:41.569Z,7.47
2022-10-13T11:11:24.882Z,6.78
2022-10-13T11:13:56.448Z,8.45
2022-10-13T11:16:35.682Z,7.25
2022-10-13T11:19:08.387Z,7.18
2022-10-13T11:21:59.070Z,7.07
2022-10-13T11:24:36.183Z,6.30
2022-10-13T11:27:09.221Z,7.15
2022-10-13T11:29:56.205Z,6.45
2022-10-13T11:32:25.936Z,6.35
2022-10-13T11:34:59.746Z,7.03
2022-10-13T11:37:33.005Z,7.22
2022-10-13T11:40:34.075Z,6.50
2022-10-13T11:43:10.255Z,6.50
2022-10-13T11:46:07.170Z,7.00
2022-10-13T11:49:22.014Z,6.15
2022-10-13T11:52:13.759Z,6.38
2022-10-13T11:54:50.140Z,6.32
2022-10-13T11:57:19.426Z,6.88
2022-10-13T11:59:55.373Z,7.28
2022-10-13T12:02:24.902Z,7.70
2022-10-13T12:05:24.265Z,6.57
2022-10-13T12:07:53.861Z,7.07
2022-10-13T12:10:38.026Z,6.68
2022-10-13T12:13:05.672Z,7.03
2022-10-13T12:15:39.439Z,7.00
2022-10-13T12:18:33.975Z,6.38
2022-10-13T12:21:13.056Z,7.40
2022-10-13T12:23:42.917Z,7.40
2022-10-13T12:26:22.765Z,6.80
2022-10-13T12:29:00.809Z,6.93
2022-10-13T12:31:49.073Z,6.80
2022-10-13T12:34:35.116Z,6.22
2022-10-13T12:37:05.552Z,7.25
2022-10-13T12:39:35.132Z,7.15
2022-10-13T12:42:03.248Z,6.15
2022-10-13T12:44:32.190Z,7.78
2022-10-13T12:47:03.889Z,7.00
2022-10-13T12:49:30.637Z,7.60
2022-10-13T12:52:00.262Z,7.35
2022-10-13T12:54:32.611Z,7.07
2022-10-13T12:57:04.018Z,7.47
2022-10-13T12:59:31.858Z,7.68
2022-10-13T13:02:04.269Z,7.95
2022-10-13T13:04:41.168Z,7.93
2022-10-13T13:07:23.046Z,7.53
2022-10-13T13:10:03.288Z,8.30
2022-10-13T13:12:31.324Z,8.23
2022-10-13T13:14:58.417Z,8.40
2022-10-13T13:20:41.976Z,7.32
2022-10-13T13:23:08.781Z,7.55
2022-10-13T13:25:35.548Z,7.47
2022-10-13T13:28:04.688Z,7.28
2022-10-13T13:30:31.480Z,7.72
2022-10-13T13:32:58.300Z,7.85
2022-10-13T13:35:25.125Z,7.68
2022-10-13T13:37:53.108Z,8.32
2022-10-13T13:40:28.989Z,7.88
2022-10-13T13:42:55.935Z,8.57
2022-10-13T13:45:24.989Z,8.60
2022-10-13T13:47:51.753Z,8.25
2022-10-13T13:50:24.726Z,8.50
2022-10-13T13:55:18.631Z,7.93
2022-10-13T13:57:45.808Z,7.97
2022-10-13T14:00:14.242Z,7.95
2022-10-13T14:02:41.622Z,8.60
2022-10-13T14:05:08.780Z,8.45
2022-10-13T14:07:35.581Z,7.82
2022-10-13T14:10:02.648Z,8.05
2022-10-13T14:12:30.848Z,8.68
2022-10-13T14:14:58.516Z,8.48
2022-10-13T14:17:26.407Z,8.82
2022-10-13T14:19:53.229Z,8.40
2022-10-13T14:22:20.447Z,8.23
2022-10-13T14:24:47.390Z,8.82
2022-10-13T14:27:14.392Z,8.98
2022-10-13T14:29:41.220Z,8.75
2022-10-13T14:32:08.001Z,8.85
2022-10-13T14:34:34.830Z,8.85
2022-10-13T14:37:01.651Z,9.13
2022-10-13T14:39:28.632Z,9.60
2022-10-13T14:41:55.430Z,8.77
2022-10-13T14:44:22.161Z,7.60
2022-10-13T14:46:48.984Z,8.70
2022-10-13T14:49:15.800Z,9.40
2022-10-13T14:51:43.016Z,9.40
2022-10-13T14:54:10.116Z,8.55
2022-10-13T14:56:37.400Z,8.70
2022-10-13T14:59:07.067Z,8.57
2022-10-13T15:01:34.449Z,9.35
2022-10-13T15:04:02.154Z,7.53
2022-10-13T15:06:29.566Z,8.40
2022-10-13T15:08:57.275Z,8.82
2022-10-13T15:11:25.341Z,8.93
2022-10-13T15:13:52.342Z,9.35
2022-10-13T15:16:28.244Z,8.50
2022-10-13T15:18:56.901Z,7.82
2022-10-13T15:21:24.228Z,8.52
2022-10-13T15:23:51.396Z,7.78
2022-10-13T15:26:19.500Z,8.98
2022-10-13T15:28:49.056Z,9.50
2022-10-13T15:31:18.018Z,9.75
2022-10-13T15:33:51.711Z,9.02
2022-10-13T15:36:19.665Z,8.73
2022-10-13T15:38:46.632Z,8.75
2022-10-13T15:41:13.415Z,9.05
2022-10-13T15:43:40.261Z,8.10
2022-10-13T15:46:21.268Z,9.00
2022-10-13T15:48:49.073Z,8.35
2022-10-13T15:51:19.640Z,8.88
2022-10-13T15:53:47.839Z,9.25
2022-10-13T15:56:14.972Z,9.38
2022-10-13T15:58:41.756Z,9.10
2022-10-13T16:01:12.961Z,9.55
2022-10-13T16:03:40.265Z,9.00
2022-10-13T16:06:09.143Z,9.05
2022-10-13T16:08:37.293Z,9.30
2022-10-13T16:11:09.052Z,8.85
2022-10-13T16:13:35.797Z,9.80
2022-10-13T16:16:02.672Z,9.25
2022-10-13T16:18:34.692Z,9.35
2022-10-13T16:21:07.500Z,9.87
2022-10-13T16:23:34.462Z,10.40
2022-10-13T16:26:02.612Z,9.93
2022-10-13T16:28:29.382Z,10.35
2022-10-13T16:30:56.192Z,11.18
2022-10-13T16:33:23.086Z,10.30
2022-10-13T16:35:49.854Z,11.20
2022-10-13T16:38:16.624Z,10.57
2022-10-13T16:40:43.328Z,10.25
2022-10-13T16:43:10.075Z,10.00
2022-10-13T16:45:58.549Z,11.13
2022-10-13T16:48:23.919Z,12.13
2022-10-13T16:50:51.746Z,12.27
2022-10-13T16:53:18.769Z,10.82
2022-10-13T16:55:45.578Z,11.63
2022-10-13T16:58:12.604Z,12.65
2022-10-13T17:00:40.197Z,11.95
2022-10-13T17:03:07.711Z,12.00
2022-10-13T17:05:34.471Z,12.73
2022-10-13T17:08:01.404Z,13.18
2022-10-13T17:10:28.168Z,13.25
2022-10-13T17:12:54.901Z,12.00
2022-10-13T17:15:21.676Z,13.77
2022-10-13T17:17:48.441Z,11.77
2022-10-13T17:20:15.272Z,11.82
2022-10-13T17:22:42.172Z,12.75
2022-10-13T17:25:09.385Z,12.68
2022-10-13T17:27:36.825Z,13.10
2022-10-13T17:30:05.053Z,11.95
2022-10-13T17:32:31.864Z,11.38
2022-10-13T17:34:59.617Z,11.82
2022-10-13T17:37:26.521Z,12.95
2022-10-13T17:39:53.435Z,11.70
2022-10-13T17:42:20.198Z,11.85
2022-10-13T17:44:49.369Z,13.40
2022-10-13T17:47:16.126Z,12.10
2022-10-13T17:49:42.905Z,12.02
2022-10-13T17:52:09.746Z,12.85
2022-10-13T17:54:37.012Z,12.07
2022-10-13T17:57:03.840Z,10.27
2022-10-13T17:59:30.768Z,11.65
2022-10-13T18:01:57.675Z,10.70
2022-10-13T18:04:24.475Z,10.75
2022-10-13T18:06:51.312Z,10.77
2022-10-13T18:09:20.193Z,11.25
2022-10-13T18:11:51.072Z,9.52
2022-10-13T18:14:20.331Z,10.35
2022-10-13T18:16:47.340Z,9.93
2022-10-13T18:19:14.319Z,10.13
2022-10-13T18:21:41.158Z,10.30
2022-10-13T18:24:10.205Z,10.75
2022-10-13T18:26:37.113Z,11.43
2022-10-13T18:29:06.027Z,10.10
2022-10-13T18:31:34.977Z,9.25
2022-10-13T18:34:07.655Z,8.95
2022-10-13T18:36:40.139Z,9.05
2022-10-13T18:39:10.459Z,6.57
2022-10-13T18:41:37.930Z,6.20
2022-10-13T18:44:06.033Z,5.90
2022-10-13T18:46:33.992Z,6.68
2022-10-13T18:49:00.787Z,4.68
2022-10-13T18:51:33.417Z,4.03
2022-10-13T18:54:02.765Z,4.13
2022-10-13T18:56:30.816Z,4.15
2022-10-13T18:59:00.043Z,3.83
2022-10-13T19:01:30.839Z,4.47
2022-10-13T19:03:58.140Z,3.80
2022-10-13T19:06:27.126Z,3.70
2022-10-13T19:09:05.661Z,3.85
2022-10-13T19:11:33.349Z,3.70
2022-10-13T19:14:01.285Z,4.18
2022-10-13T19:16:29.907Z,3.72
2022-10-13T19:18:57.262Z,3.75
2022-10-13T19:21:24.720Z,4.32
2022-10-13T19:23:51.560Z,4.38
2022-10-13T19:26:20.996Z,4.00
2022-10-13T19:28:48.323Z,4.30
2022-10-13T19:31:21.475Z,3.25
2022-10-13T19:33:49.313Z,4.13
2022-10-13T19:36:30.288Z,3.80
2022-10-13T19:38:57.764Z,3.47
2022-10-13T19:41:25.001Z,4.07
2022-10-13T19:43:52.626Z,3.75
2022-10-13T19:46:19.409Z,3.63
2022-10-13T19:48:46.228Z,4.25
2022-10-13T19:51:13.782Z,4.65
2022-10-13T19:53:41.128Z,3.85
2022-10-13T19:56:08.740Z,3.92
2022-10-13T19:58:36.378Z,4.43
2022-10-13T20:01:08.312Z,4.75
2022-10-13T20:03:35.291Z,4.40
2022-10-13T20:06:06.248Z,4.15
2022-10-13T20:08:33.640Z,4.40
2022-10-13T20:11:09.168Z,4.50
2022-10-13T20:13:36.815Z,4.30
2022-10-13T20:16:09.205Z,3.78
2022-10-13T20:18:37.112Z,4.30
2022-10-13T20:21:09.342Z,4.28
2022-10-13T20:23:36.213Z,4.00
2022-10-13T20:26:09.226Z,4.53
2022-10-13T20:31:10.555Z,5.10
2022-10-13T20:33:37.409Z,4.85
2022-10-13T20:36:07.026Z,4.57
2022-10-13T20:38:38.054Z,6.70
2022-10-13T20:41:19.950Z,4.38
2022-10-13T20:43:47.973Z,4.78
2022-10-13T20:46:16.401Z,5.13
2022-10-13T20:51:30.865Z,4.43
2022-10-13T20:53:57.872Z,4.32
2022-10-13T20:56:26.299Z,4.38
2022-10-13T20:58:53.473Z,4.43
2022-10-13T21:01:22.109Z,4.50
2022-10-13T21:03:53.787Z,4.97
2022-10-13T21:06:21.519Z,4.07
2022-10-13T21:08:48.437Z,5.05
2022-10-13T21:11:17.299Z,4.88
2022-10-13T21:13:45.027Z,4.25
2022-10-13T21:16:23.709Z,4.47
2022-10-13T21:18:51.681Z,4.68
2022-10-13T21:21:22.191Z,4.57
2022-10-13T21:23:53.227Z,4.25
2022-10-13T21:26:22.127Z,5.00
2022-10-13T21:28:50.064Z,4.50
2022-10-13T21:31:18.915Z,4.70
2022-10-13T21:33:45.783Z,4.45
2022-10-13T21:36:15.719Z,4.75
2022-10-13T21:38:43.767Z,4.50
2022-10-13T21:41:12.185Z,5.28
2022-10-13T21:43:39.263Z,5.28
2022-10-13T21:46:19.941Z,5.40
2022-10-13T21:48:47.662Z,5.20
2022-10-13T21:51:15.976Z,6.22
2022-10-13T21:53:43.138Z,5.68
2022-10-13T21:56:11.979Z,5.22
2022-10-13T21:58:39.276Z,5.65
2022-10-13T22:01:06.869Z,5.22
2022-10-13T22:03:34.834Z,5.45
2022-10-13T22:06:07.014Z,5.60
2022-10-13T22:08:39.088Z,5.03
2022-10-13T22:11:07.269Z,5.38
2022-10-13T22:13:35.382Z,5.05
2022-10-13T22:16:10.574Z,4.80
2022-10-13T22:18:37.414Z,5.53
2022-10-13T22:21:07.068Z,4.90
2022-10-13T22:23:34.093Z,4.80
2022-10-13T22:26:00.845Z,5.25
2022-10-13T22:28:27.649Z,4.85
2022-10-13T22:30:54.524Z,4.75
2022-10-13T22:33:21.308Z,5.40
2022-10-13T22:35:48.065Z,4.97
2022-10-13T22:38:15.438Z,4.68
2022-10-13T22:40:42.258Z,5.57
2022-10-13T22:43:09.197Z,4.63
2022-10-13T22:45:35.992Z,5.63
2022-10-13T22:48:02.886Z,5.25
2022-10-13T22:50:29.880Z,5.25
2022-10-13T22:52:56.654Z,5.22
2022-10-13T22:55:23.401Z,5.85
2022-10-13T22:57:50.157Z,6.20
2022-10-13T23:00:17.038Z,5.63
2022-10-13T23:02:43.776Z,6.10
2022-10-13T23:05:10.520Z,7.50
2022-10-13T23:07:37.290Z,6.72
2022-10-13T23:10:04.408Z,7.03
2022-10-13T23:12:31.117Z,7.55
2022-10-13T23:14:57.908Z,7.28
2022-10-13T23:17:24.929Z,7.05
2022-10-13T23:19:51.761Z,7.90
2022-10-13T23:22:18.580Z,7.13
2022-10-13T23:24:45.295Z,6.35
2022-10-13T23:27:12.049Z,7.18
2022-10-13T23:29:38.792Z,7.05
2022-10-13T23:32:09.781Z,7.07
2022-10-13T23:34:36.847Z,8.48
2022-10-13T23:37:03.636Z,7.70
2022-10-13T23:39:30.357Z,7.47
2022-10-13T23:41:57.664Z,7.82
2022-10-13T23:44:24.518Z,7.63
2022-10-13T23:46:51.234Z,8.30
2022-10-13T23:49:17.985Z,8.77
2022-10-13T23:51:44.860Z,9.02
2022-10-13T23:54:11.738Z,9.20
2022-10-13T23:56:39.228Z,9.18
2022-10-13T23:59:06.049Z,8.65
